Cummingsville, Minnesota
Current Conditions -  °F | °C
As of 11:55 PM on Tuesday 21 Oct 2014 (Local Time) from KFKA Reporting Station
Clear Clear  
Wind Chill: 35°   Ceiling: Unl
Heat Index: 40°   Visibility: 10mi
Dew Point: 35°   Wind: 8mph
Humidity: 82%   Direction: 130°SE
Pressure: 30.23"   Gusts: NA
Location:  43.8233°N, 92.1103°W
Report Text: KFKA 220455Z AUTO 13007KT 10SM CLR 05/02 A3023 RMK AO2 T00450017
Loading
Personal Weather Stations






























Interactive Weather Map
Tropical Storm Tracking
New forecast layout! Learn more

10-Day Weather Forecast

Advertisements
Track Severe Weather on mobile